sensor_id;sensor_type;location;lat;lon;timestamp;temperature;humidity
32506;DHT22;18955;51.224;8.482;2023-04-03T00:00:16;4.10;85.90
32506;DHT22;18955;51.224;8.482;2023-04-03T00:02:42;4.00;85.80
32506;DHT22;18955;51.224;8.482;2023-04-03T00:05:09;4.00;85.80
32506;DHT22;18955;51.224;8.482;2023-04-03T00:07:35;4.00;85.80
32506;DHT22;18955;51.224;8.482;2023-04-03T00:10:02;4.00;85.80
32506;DHT22;18955;51.224;8.482;2023-04-03T00:12:28;4.00;85.80
32506;DHT22;18955;51.224;8.482;2023-04-03T00:14:54;4.00;85.80
32506;DHT22;18955;51.224;8.482;2023-04-03T00:17:21;4.00;85.80
32506;DHT22;18955;51.224;8.482;2023-04-03T00:19:47;4.00;85.80
32506;DHT22;18955;51.224;8.482;2023-04-03T00:22:13;3.90;85.70
32506;DHT22;18955;51.224;8.482;2023-04-03T00:24:39;4.00;85.80
32506;DHT22;18955;51.224;8.482;2023-04-03T00:27:06;3.90;85.70
32506;DHT22;18955;51.224;8.482;2023-04-03T00:29:32;3.90;85.70
32506;DHT22;18955;51.224;8.482;2023-04-03T00:31:58;3.90;85.70
32506;DHT22;18955;51.224;8.482;2023-04-03T00:34:25;3.90;85.70
32506;DHT22;18955;51.224;8.482;2023-04-03T00:36:51;3.90;85.70
32506;DHT22;18955;51.224;8.482;2023-04-03T00:39:17;3.90;85.60
32506;DHT22;18955;51.224;8.482;2023-04-03T00:41:43;3.90;85.70
32506;DHT22;18955;51.224;8.482;2023-04-03T00:47:08;3.90;85.70
32506;DHT22;18955;51.224;8.482;2023-04-03T00:49:37;3.80;85.60
32506;DHT22;18955;51.224;8.482;2023-04-03T00:52:05;3.80;85.60
32506;DHT22;18955;51.224;8.482;2023-04-03T00:54:35;3.80;85.60
32506;DHT22;18955;51.224;8.482;2023-04-03T00:57:02;3.80;85.70
32506;DHT22;18955;51.224;8.482;2023-04-03T00:59:35;3.80;85.70
32506;DHT22;18955;51.224;8.482;2023-04-03T01:02:01;3.70;85.70
32506;DHT22;18955;51.224;8.482;2023-04-03T01:04:35;3.80;85.70
32506;DHT22;18955;51.224;8.482;2023-04-03T01:07:12;3.80;85.60
32506;DHT22;18955;51.224;8.482;2023-04-03T01:09:40;3.80;85.60
32506;DHT22;18955;51.224;8.482;2023-04-03T01:12:23;3.70;85.60
32506;DHT22;18955;51.224;8.482;2023-04-03T01:14:56;3.70;85.60
32506;DHT22;18955;51.224;8.482;2023-04-03T01:28:09;3.70;85.50
32506;DHT22;18955;51.224;8.482;2023-04-03T01:33:30;3.60;85.50
32506;DHT22;18955;51.224;8.482;2023-04-03T01:35:57;3.60;85.40
32506;DHT22;18955;51.224;8.482;2023-04-03T01:38:23;3.60;85.40
32506;DHT22;18955;51.224;8.482;2023-04-03T01:40:50;3.60;85.40
32506;DHT22;18955;51.224;8.482;2023-04-03T01:43:17;3.60;85.40
32506;DHT22;18955;51.224;8.482;2023-04-03T01:45:43;3.60;85.40
32506;DHT22;18955;51.224;8.482;2023-04-03T01:48:09;3.50;85.30
32506;DHT22;18955;51.224;8.482;2023-04-03T01:50:36;3.60;85.40
32506;DHT22;18955;51.224;8.482;2023-04-03T01:53:02;3.60;85.30
32506;DHT22;18955;51.224;8.482;2023-04-03T01:55:28;3.50;85.20
32506;DHT22;18955;51.224;8.482;2023-04-03T01:57:55;3.50;85.00
32506;DHT22;18955;51.224;8.482;2023-04-03T02:00:21;3.50;85.10
32506;DHT22;18955;51.224;8.482;2023-04-03T02:02:48;3.50;85.10
32506;DHT22;18955;51.224;8.482;2023-04-03T02:05:14;3.50;85.10
32506;DHT22;18955;51.224;8.482;2023-04-03T02:07:41;3.50;85.00
32506;DHT22;18955;51.224;8.482;2023-04-03T02:10:08;3.50;85.20
32506;DHT22;18955;51.224;8.482;2023-04-03T02:12:34;3.50;85.30
32506;DHT22;18955;51.224;8.482;2023-04-03T02:15:00;3.50;85.40
32506;DHT22;18955;51.224;8.482;2023-04-03T02:17:27;3.40;85.40
32506;DHT22;18955;51.224;8.482;2023-04-03T02:19:54;3.40;85.30
32506;DHT22;18955;51.224;8.482;2023-04-03T02:22:21;3.40;85.30
32506;DHT22;18955;51.224;8.482;2023-04-03T02:24:47;3.40;85.30
32506;DHT22;18955;51.224;8.482;2023-04-03T02:27:13;3.30;85.30
32506;DHT22;18955;51.224;8.482;2023-04-03T02:29:40;3.40;85.30
32506;DHT22;18955;51.224;8.482;2023-04-03T02:32:07;3.40;85.30
32506;DHT22;18955;51.224;8.482;2023-04-03T02:34:34;3.40;85.30
32506;DHT22;18955;51.224;8.482;2023-04-03T02:37:01;3.30;85.20
32506;DHT22;18955;51.224;8.482;2023-04-03T02:39:27;3.30;85.20
32506;DHT22;18955;51.224;8.482;2023-04-03T02:41:55;3.30;85.20
32506;DHT22;18955;51.224;8.482;2023-04-03T02:44:24;3.30;85.10
32506;DHT22;18955;51.224;8.482;2023-04-03T02:46:52;3.30;85.10
32506;DHT22;18955;51.224;8.482;2023-04-03T02:49:18;3.30;85.00
32506;DHT22;18955;51.224;8.482;2023-04-03T02:51:44;3.20;85.00
32506;DHT22;18955;51.224;8.482;2023-04-03T02:54:12;3.40;85.00
32506;DHT22;18955;51.224;8.482;2023-04-03T02:56:42;3.20;84.90
32506;DHT22;18955;51.224;8.482;2023-04-03T02:59:08;3.20;84.90
32506;DHT22;18955;51.224;8.482;2023-04-03T03:01:37;3.20;84.80
32506;DHT22;18955;51.224;8.482;2023-04-03T03:04:03;3.10;84.70
32506;DHT22;18955;51.224;8.482;2023-04-03T03:06:30;3.20;84.80
32506;DHT22;18955;51.224;8.482;2023-04-03T03:08:56;3.20;84.70
32506;DHT22;18955;51.224;8.482;2023-04-03T03:11:22;3.10;84.60
32506;DHT22;18955;51.224;8.482;2023-04-03T03:13:48;3.10;84.40
32506;DHT22;18955;51.224;8.482;2023-04-03T03:16:14;3.10;84.60
32506;DHT22;18955;51.224;8.482;2023-04-03T03:18:41;3.10;84.50
32506;DHT22;18955;51.224;8.482;2023-04-03T03:21:09;3.10;84.30
32506;DHT22;18955;51.224;8.482;2023-04-03T03:23:36;3.10;84.30
32506;DHT22;18955;51.224;8.482;2023-04-03T03:26:05;3.10;84.70
32506;DHT22;18955;51.224;8.482;2023-04-03T03:28:34;3.10;84.20
32506;DHT22;18955;51.224;8.482;2023-04-03T03:31:02;3.10;84.20
32506;DHT22;18955;51.224;8.482;2023-04-03T03:33:30;3.00;84.60
32506;DHT22;18955;51.224;8.482;2023-04-03T03:35:56;3.00;84.80
32506;DHT22;18955;51.224;8.482;2023-04-03T03:38:23;3.00;84.80
32506;DHT22;18955;51.224;8.482;2023-04-03T03:40:49;3.00;84.70
32506;DHT22;18955;51.224;8.482;2023-04-03T03:43:18;3.00;84.70
32506;DHT22;18955;51.224;8.482;2023-04-03T03:45:53;2.90;84.70
32506;DHT22;18955;51.224;8.482;2023-04-03T03:48:20;2.90;84.70
32506;DHT22;18955;51.224;8.482;2023-04-03T03:50:47;3.00;84.70
32506;DHT22;18955;51.224;8.482;2023-04-03T03:53:14;2.90;84.60
32506;DHT22;18955;51.224;8.482;2023-04-03T03:55:42;2.90;84.60
32506;DHT22;18955;51.224;8.482;2023-04-03T03:58:08;2.90;84.60
32506;DHT22;18955;51.224;8.482;2023-04-03T04:00:35;2.90;84.60
32506;DHT22;18955;51.224;8.482;2023-04-03T04:03:01;2.90;84.50
32506;DHT22;18955;51.224;8.482;2023-04-03T04:05:29;2.90;84.50
32506;DHT22;18955;51.224;8.482;2023-04-03T04:07:56;2.90;84.40
32506;DHT22;18955;51.224;8.482;2023-04-03T04:10:24;2.90;84.30
32506;DHT22;18955;51.224;8.482;2023-04-03T04:12:51;2.80;84.20
32506;DHT22;18955;51.224;8.482;2023-04-03T04:15:21;2.80;84.30
32506;DHT22;18955;51.224;8.482;2023-04-03T04:17:48;2.80;84.10
32506;DHT22;18955;51.224;8.482;2023-04-03T04:20:15;2.70;84.00
32506;DHT22;18955;51.224;8.482;2023-04-03T04:22:41;2.80;84.20
32506;DHT22;18955;51.224;8.482;2023-04-03T04:25:09;2.80;84.00
32506;DHT22;18955;51.224;8.482;2023-04-03T04:27:37;2.80;84.10
32506;DHT22;18955;51.224;8.482;2023-04-03T04:30:05;2.80;83.80
32506;DHT22;18955;51.224;8.482;2023-04-03T04:32:32;2.70;84.00
32506;DHT22;18955;51.224;8.482;2023-04-03T04:34:59;2.70;83.90
32506;DHT22;18955;51.224;8.482;2023-04-03T04:37:26;2.70;83.80
32506;DHT22;18955;51.224;8.482;2023-04-03T04:39:52;2.70;84.00
32506;DHT22;18955;51.224;8.482;2023-04-03T04:42:19;2.70;83.90
32506;DHT22;18955;51.224;8.482;2023-04-03T04:44:48;2.70;83.90
32506;DHT22;18955;51.224;8.482;2023-04-03T04:47:15;2.60;84.00
32506;DHT22;18955;51.224;8.482;2023-04-03T04:49:42;2.60;83.90
32506;DHT22;18955;51.224;8.482;2023-04-03T04:52:09;2.60;83.90
32506;DHT22;18955;51.224;8.482;2023-04-03T04:54:36;2.60;83.90
32506;DHT22;18955;51.224;8.482;2023-04-03T04:57:02;2.60;83.80
32506;DHT22;18955;51.224;8.482;2023-04-03T04:59:30;2.60;83.90
32506;DHT22;18955;51.224;8.482;2023-04-03T05:01:58;2.60;83.80
32506;DHT22;18955;51.224;8.482;2023-04-03T05:04:25;2.60;84.20
32506;DHT22;18955;51.224;8.482;2023-04-03T05:06:57;2.50;84.20
32506;DHT22;18955;51.224;8.482;2023-04-03T05:09:27;2.50;84.30
32506;DHT22;18955;51.224;8.482;2023-04-03T05:11:53;2.50;84.20
32506;DHT22;18955;51.224;8.482;2023-04-03T05:14:23;2.50;84.20
32506;DHT22;18955;51.224;8.482;2023-04-03T05:16:50;2.50;84.20
32506;DHT22;18955;51.224;8.482;2023-04-03T05:19:21;2.50;84.20
32506;DHT22;18955;51.224;8.482;2023-04-03T05:21:47;2.50;84.10
32506;DHT22;18955;51.224;8.482;2023-04-03T05:24:16;2.50;84.10
32506;DHT22;18955;51.224;8.482;2023-04-03T05:26:43;2.40;84.00
32506;DHT22;18955;51.224;8.482;2023-04-03T05:29:11;2.40;84.00
32506;DHT22;18955;51.224;8.482;2023-04-03T05:31:38;2.40;83.90
32506;DHT22;18955;51.224;8.482;2023-04-03T05:34:05;2.40;83.90
32506;DHT22;18955;51.224;8.482;2023-04-03T05:36:35;2.40;83.50
32506;DHT22;18955;51.224;8.482;2023-04-03T05:39:05;2.40;83.60
32506;DHT22;18955;51.224;8.482;2023-04-03T05:41:33;2.40;83.30
32506;DHT22;18955;51.224;8.482;2023-04-03T05:44:00;2.40;83.50
32506;DHT22;18955;51.224;8.482;2023-04-03T05:46:26;2.30;83.40
32506;DHT22;18955;51.224;8.482;2023-04-03T05:48:55;2.30;83.40
32506;DHT22;18955;51.224;8.482;2023-04-03T05:51:34;2.30;83.50
32506;DHT22;18955;51.224;8.482;2023-04-03T05:54:29;2.30;83.30
32506;DHT22;18955;51.224;8.482;2023-04-03T05:57:03;2.30;83.50
32506;DHT22;18955;51.224;8.482;2023-04-03T05:59:29;2.30;83.40
32506;DHT22;18955;51.224;8.482;2023-04-03T06:01:58;2.30;83.60
32506;DHT22;18955;51.224;8.482;2023-04-03T06:04:24;2.30;83.50
32506;DHT22;18955;51.224;8.482;2023-04-03T06:06:51;2.30;83.60
32506;DHT22;18955;51.224;8.482;2023-04-03T06:09:20;2.20;83.40
32506;DHT22;18955;51.224;8.482;2023-04-03T06:11:47;2.20;83.40
32506;DHT22;18955;51.224;8.482;2023-04-03T06:14:13;2.30;83.50
32506;DHT22;18955;51.224;8.482;2023-04-03T06:16:40;2.20;83.50
32506;DHT22;18955;51.224;8.482;2023-04-03T06:19:10;2.20;83.50
32506;DHT22;18955;51.224;8.482;2023-04-03T06:21:40;2.20;83.60
32506;DHT22;18955;51.224;8.482;2023-04-03T06:24:07;2.20;83.60
32506;DHT22;18955;51.224;8.482;2023-04-03T06:26:33;2.20;83.60
32506;DHT22;18955;51.224;8.482;2023-04-03T06:29:00;2.10;83.40
32506;DHT22;18955;51.224;8.482;2023-04-03T06:31:26;2.20;83.50
32506;DHT22;18955;51.224;8.482;2023-04-03T06:33:52;2.20;83.50
32506;DHT22;18955;51.224;8.482;2023-04-03T06:36:19;2.20;83.50
32506;DHT22;18955;51.224;8.482;2023-04-03T06:38:47;2.20;83.40
32506;DHT22;18955;51.224;8.482;2023-04-03T06:41:14;2.20;83.40
32506;DHT22;18955;51.224;8.482;2023-04-03T06:43:43;2.20;83.20
32506;DHT22;18955;51.224;8.482;2023-04-03T06:46:17;2.20;83.20
32506;DHT22;18955;51.224;8.482;2023-04-03T06:48:43;2.30;83.30
32506;DHT22;18955;51.224;8.482;2023-04-03T06:51:14;2.30;83.20
32506;DHT22;18955;51.224;8.482;2023-04-03T06:53:41;2.40;82.90
32506;DHT22;18955;51.224;8.482;2023-04-03T06:56:07;2.40;82.80
32506;DHT22;18955;51.224;8.482;2023-04-03T06:58:34;2.50;82.80
32506;DHT22;18955;51.224;8.482;2023-04-03T07:01:00;2.50;82.80
32506;DHT22;18955;51.224;8.482;2023-04-03T07:03:26;2.60;82.80
32506;DHT22;18955;51.224;8.482;2023-04-03T07:05:53;2.60;82.70
32506;DHT22;18955;51.224;8.482;2023-04-03T07:08:19;2.80;82.40
32506;DHT22;18955;51.224;8.482;2023-04-03T07:10:46;2.70;82.50
32506;DHT22;18955;51.224;8.482;2023-04-03T07:13:12;2.80;82.40
32506;DHT22;18955;51.224;8.482;2023-04-03T07:15:38;2.80;82.30
32506;DHT22;18955;51.224;8.482;2023-04-03T07:18:04;2.90;82.30
32506;DHT22;18955;51.224;8.482;2023-04-03T07:20:31;3.00;82.30
32506;DHT22;18955;51.224;8.482;2023-04-03T07:22:58;2.90;82.00
32506;DHT22;18955;51.224;8.482;2023-04-03T07:25:24;3.00;82.20
32506;DHT22;18955;51.224;8.482;2023-04-03T07:27:50;3.10;82.20
32506;DHT22;18955;51.224;8.482;2023-04-03T07:30:16;3.30;82.40
32506;DHT22;18955;51.224;8.482;2023-04-03T07:32:43;3.20;82.20
32506;DHT22;18955;51.224;8.482;2023-04-03T07:35:09;3.30;82.10
32506;DHT22;18955;51.224;8.482;2023-04-03T07:37:36;3.30;82.20
32506;DHT22;18955;51.224;8.482;2023-04-03T07:40:03;3.30;82.30
32506;DHT22;18955;51.224;8.482;2023-04-03T07:42:30;3.30;82.20
32506;DHT22;18955;51.224;8.482;2023-04-03T07:44:56;3.40;82.40
32506;DHT22;18955;51.224;8.482;2023-04-03T07:47:22;3.40;82.30
32506;DHT22;18955;51.224;8.482;2023-04-03T07:49:49;3.50;82.50
32506;DHT22;18955;51.224;8.482;2023-04-03T07:52:15;3.50;82.40
32506;DHT22;18955;51.224;8.482;2023-04-03T07:54:41;3.50;82.70
32506;DHT22;18955;51.224;8.482;2023-04-03T07:57:08;3.60;82.60
32506;DHT22;18955;51.224;8.482;2023-04-03T07:59:34;3.60;82.50
32506;DHT22;18955;51.224;8.482;2023-04-03T08:02:00;3.60;82.50
32506;DHT22;18955;51.224;8.482;2023-04-03T08:04:27;3.70;82.70
32506;DHT22;18955;51.224;8.482;2023-04-03T08:06:53;4.90;83.20
32506;DHT22;18955;51.224;8.482;2023-04-03T08:09:19;3.70;82.40
32506;DHT22;18955;51.224;8.482;2023-04-03T08:11:46;3.70;82.60
32506;DHT22;18955;51.224;8.482;2023-04-03T08:14:12;3.70;82.70
32506;DHT22;18955;51.224;8.482;2023-04-03T08:16:47;3.80;82.80
32506;DHT22;18955;51.224;8.482;2023-04-03T08:19:14;3.80;82.70
32506;DHT22;18955;51.224;8.482;2023-04-03T08:21:42;3.80;82.80
32506;DHT22;18955;51.224;8.482;2023-04-03T08:24:08;3.80;82.80
32506;DHT22;18955;51.224;8.482;2023-04-03T08:26:35;3.90;82.80
32506;DHT22;18955;51.224;8.482;2023-04-03T08:29:01;3.80;82.80
32506;DHT22;18955;51.224;8.482;2023-04-03T08:31:28;3.90;83.00
32506;DHT22;18955;51.224;8.482;2023-04-03T08:33:54;3.90;83.00
32506;DHT22;18955;51.224;8.482;2023-04-03T08:36:26;3.90;83.00
32506;DHT22;18955;51.224;8.482;2023-04-03T08:38:53;3.90;83.20
32506;DHT22;18955;51.224;8.482;2023-04-03T08:41:40;3.90;83.00
32506;DHT22;18955;51.224;8.482;2023-04-03T08:49:55;3.90;83.30
32506;DHT22;18955;51.224;8.482;2023-04-03T08:52:55;4.40;83.60
32506;DHT22;18955;51.224;8.482;2023-04-03T08:55:33;3.90;83.60
32506;DHT22;18955;51.224;8.482;2023-04-03T08:58:21;3.90;83.60
32506;DHT22;18955;51.224;8.482;2023-04-03T09:01:00;3.90;83.70
32506;DHT22;18955;51.224;8.482;2023-04-03T09:03:33;3.90;83.80
32506;DHT22;18955;51.224;8.482;2023-04-03T09:06:05;3.90;84.00
32506;DHT22;18955;51.224;8.482;2023-04-03T09:08:33;3.90;84.10
32506;DHT22;18955;51.224;8.482;2023-04-03T09:13:57;3.90;84.10
32506;DHT22;18955;51.224;8.482;2023-04-03T09:22:21;3.90;84.30
32506;DHT22;18955;51.224;8.482;2023-04-03T09:24:55;3.90;84.50
32506;DHT22;18955;51.224;8.482;2023-04-03T09:27:23;3.90;84.50
32506;DHT22;18955;51.224;8.482;2023-04-03T09:29:53;3.90;84.60
32506;DHT22;18955;51.224;8.482;2023-04-03T09:32:34;3.90;84.60
32506;DHT22;18955;51.224;8.482;2023-04-03T09:37:44;3.90;84.70
32506;DHT22;18955;51.224;8.482;2023-04-03T09:43:34;3.90;84.80
32506;DHT22;18955;51.224;8.482;2023-04-03T09:48:57;3.90;84.90
32506;DHT22;18955;51.224;8.482;2023-04-03T09:51:28;4.00;84.90
32506;DHT22;18955;51.224;8.482;2023-04-03T09:53:55;3.90;84.70
32506;DHT22;18955;51.224;8.482;2023-04-03T09:56:29;3.90;84.60
32506;DHT22;18955;51.224;8.482;2023-04-03T10:01:33;3.90;83.40
32506;DHT22;18955;51.224;8.482;2023-04-03T10:06:46;4.00;83.60
32506;DHT22;18955;51.224;8.482;2023-04-03T10:09:17;4.10;83.40
32506;DHT22;18955;51.224;8.482;2023-04-03T10:12:03;4.00;83.90
32506;DHT22;18955;51.224;8.482;2023-04-03T10:14:38;4.10;83.70
32506;DHT22;18955;51.224;8.482;2023-04-03T10:22:29;4.20;82.90
32506;DHT22;18955;51.224;8.482;2023-04-03T10:25:25;4.20;83.60
32506;DHT22;18955;51.224;8.482;2023-04-03T10:28:01;4.20;83.40
32506;DHT22;18955;51.224;8.482;2023-04-03T10:33:05;4.30;83.00
32506;DHT22;18955;51.224;8.482;2023-04-03T10:38:29;4.40;83.40
32506;DHT22;18955;51.224;8.482;2023-04-03T10:46:44;4.40;83.20
32506;DHT22;18955;51.224;8.482;2023-04-03T10:52:24;4.50;83.90
32506;DHT22;18955;51.224;8.482;2023-04-03T10:57:36;4.50;83.20
32506;DHT22;18955;51.224;8.482;2023-04-03T11:03:03;4.60;82.60
32506;DHT22;18955;51.224;8.482;2023-04-03T11:05:37;4.60;83.10
32506;DHT22;18955;51.224;8.482;2023-04-03T11:08:35;4.60;83.40
32506;DHT22;18955;51.224;8.482;2023-04-03T11:11:03;4.60;82.80
32506;DHT22;18955;51.224;8.482;2023-04-03T11:13:38;4.70;83.40
32506;DHT22;18955;51.224;8.482;2023-04-03T11:16:06;4.70;82.30
32506;DHT22;18955;51.224;8.482;2023-04-03T11:18:47;4.70;82.60
32506;DHT22;18955;51.224;8.482;2023-04-03T11:21:29;4.70;83.00
32506;DHT22;18955;51.224;8.482;2023-04-03T11:23:58;4.70;82.90
32506;DHT22;18955;51.224;8.482;2023-04-03T11:26:30;4.70;83.20
32506;DHT22;18955;51.224;8.482;2023-04-03T11:29:02;4.70;83.40
32506;DHT22;18955;51.224;8.482;2023-04-03T11:31:35;4.70;83.20
32506;DHT22;18955;51.224;8.482;2023-04-03T11:36:46;4.70;83.50
32506;DHT22;18955;51.224;8.482;2023-04-03T11:39:34;4.70;83.60
32506;DHT22;18955;51.224;8.482;2023-04-03T11:42:17;4.80;83.10
32506;DHT22;18955;51.224;8.482;2023-04-03T11:44:48;4.80;83.00
32506;DHT22;18955;51.224;8.482;2023-04-03T11:47:47;4.80;82.80
32506;DHT22;18955;51.224;8.482;2023-04-03T11:53:02;4.80;82.80
32506;DHT22;18955;51.224;8.482;2023-04-03T12:08:46;4.80;82.80
32506;DHT22;18955;51.224;8.482;2023-04-03T12:24:26;4.90;83.40
32506;DHT22;18955;51.224;8.482;2023-04-03T12:27:03;4.90;83.20
32506;DHT22;18955;51.224;8.482;2023-04-03T12:45:24;5.00;82.60
32506;DHT22;18955;51.224;8.482;2023-04-03T12:47:53;5.00;82.70
32506;DHT22;18955;51.224;8.482;2023-04-03T12:50:31;5.00;82.30
32506;DHT22;18955;51.224;8.482;2023-04-03T12:53:06;5.00;82.40
32506;DHT22;18955;51.224;8.482;2023-04-03T12:55:33;5.10;82.90
32506;DHT22;18955;51.224;8.482;2023-04-03T12:58:34;5.00;82.80
32506;DHT22;18955;51.224;8.482;2023-04-03T13:01:09;5.10;82.60
32506;DHT22;18955;51.224;8.482;2023-04-03T13:03:39;5.10;82.90
32506;DHT22;18955;51.224;8.482;2023-04-03T13:06:06;5.10;83.10
32506;DHT22;18955;51.224;8.482;2023-04-03T13:08:33;6.00;83.70
32506;DHT22;18955;51.224;8.482;2023-04-03T13:11:06;5.20;83.20
32506;DHT22;18955;51.224;8.482;2023-04-03T13:13:34;5.20;83.10
32506;DHT22;18955;51.224;8.482;2023-04-03T13:16:08;5.20;83.00
32506;DHT22;18955;51.224;8.482;2023-04-03T13:18:37;5.20;83.10
32506;DHT22;18955;51.224;8.482;2023-04-03T13:23:35;5.30;83.70
32506;DHT22;18955;51.224;8.482;2023-04-03T13:26:03;5.30;83.10
32506;DHT22;18955;51.224;8.482;2023-04-03T13:28:31;5.30;83.00
32506;DHT22;18955;51.224;8.482;2023-04-03T13:34:07;5.40;83.00
32506;DHT22;18955;51.224;8.482;2023-04-03T13:36:43;5.50;83.00
32506;DHT22;18955;51.224;8.482;2023-04-03T13:41:42;5.50;83.00
32506;DHT22;18955;51.224;8.482;2023-04-03T13:46:43;5.70;82.60
32506;DHT22;18955;51.224;8.482;2023-04-03T13:51:54;5.80;82.60
32506;DHT22;18955;51.224;8.482;2023-04-03T13:54:36;5.80;82.90
32506;DHT22;18955;51.224;8.482;2023-04-03T13:57:12;5.90;82.20
32506;DHT22;18955;51.224;8.482;2023-04-03T13:59:38;6.00;82.20
32506;DHT22;18955;51.224;8.482;2023-04-03T14:02:15;6.10;82.20
32506;DHT22;18955;51.224;8.482;2023-04-03T14:04:54;6.10;81.90
32506;DHT22;18955;51.224;8.482;2023-04-03T14:07:25;6.20;81.50
32506;DHT22;18955;51.224;8.482;2023-04-03T14:09:52;6.30;81.60
32506;DHT22;18955;51.224;8.482;2023-04-03T14:12:24;6.30;81.80
32506;DHT22;18955;51.224;8.482;2023-04-03T14:14:53;6.40;81.60
32506;DHT22;18955;51.224;8.482;2023-04-03T14:17:23;6.40;81.40
32506;DHT22;18955;51.224;8.482;2023-04-03T14:19:50;6.50;81.30
32506;DHT22;18955;51.224;8.482;2023-04-03T14:22:23;7.50;81.80
32506;DHT22;18955;51.224;8.482;2023-04-03T14:24:50;6.60;81.20
32506;DHT22;18955;51.224;8.482;2023-04-03T14:29:46;6.70;81.70
32506;DHT22;18955;51.224;8.482;2023-04-03T14:32:16;6.70;81.60
32506;DHT22;18955;51.224;8.482;2023-04-03T14:34:44;6.70;81.70
32506;DHT22;18955;51.224;8.482;2023-04-03T14:37:13;6.60;82.30
32506;DHT22;18955;51.224;8.482;2023-04-03T14:39:40;6.70;82.00
32506;DHT22;18955;51.224;8.482;2023-04-03T14:42:09;6.60;82.30
32506;DHT22;18955;51.224;8.482;2023-04-03T14:44:36;6.80;82.30
32506;DHT22;18955;51.224;8.482;2023-04-03T14:47:02;6.80;81.90
32506;DHT22;18955;51.224;8.482;2023-04-03T14:49:29;6.90;81.50
32506;DHT22;18955;51.224;8.482;2023-04-03T14:51:57;7.10;81.60
32506;DHT22;18955;51.224;8.482;2023-04-03T14:54:24;7.10;81.10
32506;DHT22;18955;51.224;8.482;2023-04-03T14:56:56;7.20;81.30
32506;DHT22;18955;51.224;8.482;2023-04-03T14:59:23;7.20;81.60
32506;DHT22;18955;51.224;8.482;2023-04-03T15:01:50;7.10;81.50
32506;DHT22;18955;51.224;8.482;2023-04-03T15:04:18;7.10;81.50
32506;DHT22;18955;51.224;8.482;2023-04-03T15:06:46;7.10;81.90
32506;DHT22;18955;51.224;8.482;2023-04-03T15:09:22;7.20;81.80
32506;DHT22;18955;51.224;8.482;2023-04-03T15:11:50;7.20;82.30
32506;DHT22;18955;51.224;8.482;2023-04-03T15:14:17;7.20;81.50
32506;DHT22;18955;51.224;8.482;2023-04-03T15:16:44;7.20;82.60
32506;DHT22;18955;51.224;8.482;2023-04-03T15:19:10;7.20;82.50
32506;DHT22;18955;51.224;8.482;2023-04-03T15:21:38;7.20;82.50
32506;DHT22;18955;51.224;8.482;2023-04-03T15:24:05;7.30;82.40
32506;DHT22;18955;51.224;8.482;2023-04-03T15:26:32;7.40;82.30
32506;DHT22;18955;51.224;8.482;2023-04-03T15:28:58;7.40;82.40
32506;DHT22;18955;51.224;8.482;2023-04-03T15:31:25;7.40;81.90
32506;DHT22;18955;51.224;8.482;2023-04-03T15:33:51;7.40;82.60
32506;DHT22;18955;51.224;8.482;2023-04-03T15:36:17;7.40;83.50
32506;DHT22;18955;51.224;8.482;2023-04-03T15:38:44;7.30;83.70
32506;DHT22;18955;51.224;8.482;2023-04-03T15:41:10;7.30;83.70
32506;DHT22;18955;51.224;8.482;2023-04-03T15:43:36;8.00;84.30
32506;DHT22;18955;51.224;8.482;2023-04-03T15:46:02;7.30;84.00
32506;DHT22;18955;51.224;8.482;2023-04-03T15:48:29;7.30;83.90
32506;DHT22;18955;51.224;8.482;2023-04-03T15:50:55;7.30;84.40
32506;DHT22;18955;51.224;8.482;2023-04-03T15:53:22;7.30;84.00
32506;DHT22;18955;51.224;8.482;2023-04-03T15:55:48;7.30;83.70
32506;DHT22;18955;51.224;8.482;2023-04-03T15:58:14;7.30;83.90
32506;DHT22;18955;51.224;8.482;2023-04-03T16:00:41;7.30;84.40
32506;DHT22;18955;51.224;8.482;2023-04-03T16:03:17;7.30;84.60
32506;DHT22;18955;51.224;8.482;2023-04-03T16:05:44;7.20;84.70
32506;DHT22;18955;51.224;8.482;2023-04-03T16:08:11;7.30;84.10
32506;DHT22;18955;51.224;8.482;2023-04-03T16:10:38;7.20;84.60
32506;DHT22;18955;51.224;8.482;2023-04-03T16:13:05;7.20;84.80
32506;DHT22;18955;51.224;8.482;2023-04-03T16:15:32;7.20;85.00
32506;DHT22;18955;51.224;8.482;2023-04-03T16:18:00;7.20;85.10
32506;DHT22;18955;51.224;8.482;2023-04-03T16:20:26;7.20;85.00
32506;DHT22;18955;51.224;8.482;2023-04-03T16:22:53;7.20;85.00
32506;DHT22;18955;51.224;8.482;2023-04-03T16:25:21;7.30;84.80
32506;DHT22;18955;51.224;8.482;2023-04-03T16:27:48;7.30;85.00
32506;DHT22;18955;51.224;8.482;2023-04-03T16:30:14;7.20;84.70
32506;DHT22;18955;51.224;8.482;2023-04-03T16:32:41;7.30;85.20
32506;DHT22;18955;51.224;8.482;2023-04-03T16:35:09;7.30;85.30
32506;DHT22;18955;51.224;8.482;2023-04-03T16:37:37;7.20;85.20
32506;DHT22;18955;51.224;8.482;2023-04-03T16:40:06;7.20;85.50
32506;DHT22;18955;51.224;8.482;2023-04-03T16:42:33;7.20;85.30
32506;DHT22;18955;51.224;8.482;2023-04-03T16:44:59;7.20;85.30
32506;DHT22;18955;51.224;8.482;2023-04-03T16:47:28;7.20;85.60
32506;DHT22;18955;51.224;8.482;2023-04-03T16:49:55;7.20;85.50
32506;DHT22;18955;51.224;8.482;2023-04-03T16:52:21;7.20;85.40
32506;DHT22;18955;51.224;8.482;2023-04-03T16:54:47;7.20;85.30
32506;DHT22;18955;51.224;8.482;2023-04-03T16:57:13;7.10;85.50
32506;DHT22;18955;51.224;8.482;2023-04-03T16:59:40;7.20;85.20
32506;DHT22;18955;51.224;8.482;2023-04-03T17:02:06;7.20;85.40
32506;DHT22;18955;51.224;8.482;2023-04-03T17:04:32;7.10;85.30
32506;DHT22;18955;51.224;8.482;2023-04-03T17:07:00;7.10;85.30
32506;DHT22;18955;51.224;8.482;2023-04-03T17:09:32;7.10;85.40
32506;DHT22;18955;51.224;8.482;2023-04-03T17:11:59;7.10;85.60
32506;DHT22;18955;51.224;8.482;2023-04-03T17:14:25;7.10;85.70
32506;DHT22;18955;51.224;8.482;2023-04-03T17:16:51;7.10;85.70
32506;DHT22;18955;51.224;8.482;2023-04-03T17:19:18;7.10;85.60
32506;DHT22;18955;51.224;8.482;2023-04-03T17:21:45;7.10;85.50
32506;DHT22;18955;51.224;8.482;2023-04-03T17:24:13;7.10;85.40
32506;DHT22;18955;51.224;8.482;2023-04-03T17:26:42;7.00;85.10
32506;DHT22;18955;51.224;8.482;2023-04-03T17:29:08;7.00;85.00
32506;DHT22;18955;51.224;8.482;2023-04-03T17:31:35;7.00;85.00
32506;DHT22;18955;51.224;8.482;2023-04-03T17:34:01;7.00;85.00
32506;DHT22;18955;51.224;8.482;2023-04-03T17:36:29;7.00;84.90
32506;DHT22;18955;51.224;8.482;2023-04-03T17:38:56;7.00;84.80
32506;DHT22;18955;51.224;8.482;2023-04-03T17:41:22;6.90;84.60
32506;DHT22;18955;51.224;8.482;2023-04-03T17:43:49;6.90;84.60
32506;DHT22;18955;51.224;8.482;2023-04-03T17:46:15;6.90;84.70
32506;DHT22;18955;51.224;8.482;2023-04-03T17:48:42;6.90;84.60
32506;DHT22;18955;51.224;8.482;2023-04-03T17:51:10;6.80;84.60
32506;DHT22;18955;51.224;8.482;2023-04-03T17:53:37;6.80;84.70
32506;DHT22;18955;51.224;8.482;2023-04-03T17:56:15;6.80;84.70
32506;DHT22;18955;51.224;8.482;2023-04-03T17:58:42;6.80;84.80
32506;DHT22;18955;51.224;8.482;2023-04-03T18:03:38;6.80;84.60
32506;DHT22;18955;51.224;8.482;2023-04-03T18:06:05;6.70;85.20
32506;DHT22;18955;51.224;8.482;2023-04-03T18:08:36;6.70;84.70
32506;DHT22;18955;51.224;8.482;2023-04-03T18:11:03;6.70;84.70